createdAt,value
2023-05-09T00:00:50.780Z,21.50
2023-05-09T00:03:19.223Z,22.87
2023-05-09T00:05:47.701Z,21.20
2023-05-09T00:08:16.086Z,22.33
2023-05-09T00:10:44.972Z,23.03
2023-05-09T00:13:14.116Z,22.67
2023-05-09T00:15:44.385Z,22.50
2023-05-09T00:18:12.766Z,22.20
2023-05-09T00:20:42.075Z,22.87
2023-05-09T00:23:10.458Z,22.17
2023-05-09T00:25:38.851Z,22.77
2023-05-09T00:28:07.865Z,22.37
2023-05-09T00:30:36.576Z,22.77
2023-05-09T00:33:06.289Z,22.47
2023-05-09T00:35:34.949Z,24.20
2023-05-09T00:38:03.336Z,23.03
2023-05-09T00:40:31.787Z,22.93
2023-05-09T00:43:00.519Z,24.80
2023-05-09T00:45:28.932Z,22.80
2023-05-09T00:47:57.469Z,24.27
2023-05-09T00:50:27.231Z,23.33
2023-05-09T00:52:55.841Z,24.77
2023-05-09T00:55:25.121Z,23.87
2023-05-09T00:57:53.800Z,24.90
2023-05-09T01:00:22.435Z,25.30
2023-05-09T01:02:54.091Z,22.93
2023-05-09T01:05:24.126Z,24.43
2023-05-09T01:08:02.168Z,23.33
2023-05-09T01:10:40.668Z,26.00
2023-05-09T01:13:17.126Z,27.00
2023-05-09T01:15:55.586Z,24.90
2023-05-09T01:18:33.878Z,25.63
2023-05-09T01:21:07.743Z,24.70
2023-05-09T01:24:14.675Z,23.37
2023-05-09T01:26:48.501Z,25.33
2023-05-09T01:29:36.432Z,22.97
2023-05-09T01:32:09.776Z,23.80
2023-05-09T01:34:42.259Z,24.17
2023-05-09T01:37:12.682Z,23.63
2023-05-09T01:39:47.951Z,24.70
2023-05-09T01:42:18.023Z,24.83
2023-05-09T01:44:49.066Z,24.97
2023-05-09T01:47:19.089Z,24.67
2023-05-09T01:49:48.913Z,23.90
2023-05-09T01:52:21.100Z,22.83
2023-05-09T01:54:51.490Z,23.30
2023-05-09T01:57:21.879Z,22.90
2023-05-09T01:59:52.979Z,23.80
2023-05-09T02:02:21.458Z,23.83
2023-05-09T02:04:51.869Z,24.70
2023-05-09T02:07:20.969Z,23.83
2023-05-09T02:09:52.127Z,23.43
2023-05-09T02:12:20.820Z,23.90
2023-05-09T02:14:51.544Z,23.00
2023-05-09T02:17:19.910Z,24.73
2023-05-09T02:19:48.801Z,25.50
2023-05-09T02:22:17.474Z,23.73
2023-05-09T02:24:46.322Z,24.17
2023-05-09T02:27:16.329Z,21.73
2023-05-09T02:29:49.473Z,21.43
2023-05-09T02:32:26.963Z,23.13
2023-05-09T02:34:55.931Z,23.50
2023-05-09T02:37:25.733Z,23.43
2023-05-09T02:39:54.140Z,25.10
2023-05-09T02:42:26.027Z,23.60
2023-05-09T02:44:55.077Z,23.27
2023-05-09T02:47:25.780Z,24.40
2023-05-09T02:49:54.227Z,22.67
2023-05-09T02:52:22.953Z,23.50
2023-05-09T02:54:51.371Z,24.03
2023-05-09T02:57:20.008Z,23.40
2023-05-09T02:59:48.494Z,23.43
2023-05-09T03:02:16.948Z,23.90
2023-05-09T03:04:47.293Z,23.27
2023-05-09T03:07:15.816Z,24.43
2023-05-09T03:09:44.257Z,22.67
2023-05-09T03:12:12.759Z,23.07
2023-05-09T03:14:41.122Z,23.07
2023-05-09T03:17:09.514Z,25.50
2023-05-09T03:19:38.372Z,24.57
2023-05-09T03:22:08.346Z,24.23
2023-05-09T03:24:42.729Z,25.50
2023-05-09T03:27:11.503Z,25.13
2023-05-09T03:29:39.954Z,24.53
2023-05-09T03:32:08.326Z,24.10
2023-05-09T03:34:37.190Z,25.27
2023-05-09T03:37:08.042Z,24.10
2023-05-09T03:39:40.336Z,25.13
2023-05-09T03:42:08.938Z,25.13
2023-05-09T03:44:37.372Z,25.07
2023-05-09T03:47:06.073Z,22.70
2023-05-09T03:49:39.477Z,25.03
2023-05-09T03:52:11.105Z,24.70
2023-05-09T03:54:39.716Z,24.47
2023-05-09T03:57:08.258Z,25.00
2023-05-09T03:59:36.621Z,24.60
2023-05-09T04:02:05.996Z,25.73
2023-05-09T04:04:34.882Z,26.90
2023-05-09T04:07:03.885Z,24.20
2023-05-09T04:09:33.807Z,26.00
2023-05-09T04:12:02.261Z,25.53
2023-05-09T04:14:30.767Z,24.90
2023-05-09T04:16:59.417Z,25.83
2023-05-09T04:19:28.016Z,24.73
2023-05-09T04:21:56.825Z,24.47
2023-05-09T04:24:25.342Z,26.83
2023-05-09T04:26:55.400Z,25.17
2023-05-09T04:29:29.004Z,25.87
2023-05-09T04:31:59.375Z,24.43
2023-05-09T04:34:28.284Z,24.87
2023-05-09T04:36:59.388Z,24.67
2023-05-09T04:39:27.898Z,26.00
2023-05-09T04:42:06.673Z,27.33
2023-05-09T04:44:35.911Z,24.63
2023-05-09T04:47:04.800Z,25.67
2023-05-09T04:49:33.221Z,29.93
2023-05-09T04:52:01.645Z,25.57
2023-05-09T04:54:30.325Z,29.07
2023-05-09T04:57:09.837Z,25.87
2023-05-09T04:59:44.369Z,23.67
2023-05-09T05:02:15.157Z,24.67
2023-05-09T05:04:43.990Z,24.90
2023-05-09T05:07:12.648Z,32.70
2023-05-09T05:09:41.215Z,26.03
2023-05-09T05:12:10.090Z,22.83
2023-05-09T05:14:40.209Z,23.80
2023-05-09T05:17:11.870Z,24.23
2023-05-09T05:19:40.398Z,23.67
2023-05-09T05:22:09.755Z,30.90
2023-05-09T05:24:41.181Z,22.93
2023-05-09T05:27:09.625Z,24.33
2023-05-09T05:29:38.090Z,26.00
2023-05-09T05:32:07.561Z,26.20
2023-05-09T05:34:39.386Z,23.67
2023-05-09T05:37:08.099Z,23.27
2023-05-09T05:39:37.701Z,23.63
2023-05-09T05:42:06.322Z,25.30
2023-05-09T05:44:35.144Z,23.33
2023-05-09T05:47:03.843Z,25.10
2023-05-09T05:49:32.820Z,24.67
2023-05-09T05:52:03.017Z,20.43
2023-05-09T05:54:31.627Z,21.70
2023-05-09T05:57:00.353Z,22.90
2023-05-09T05:59:28.906Z,23.63
2023-05-09T06:01:57.386Z,22.07
2023-05-09T06:04:26.240Z,22.83
2023-05-09T06:06:54.747Z,22.33
2023-05-09T06:09:24.491Z,22.03
2023-05-09T06:11:53.330Z,23.00
2023-05-09T06:14:21.746Z,23.07
2023-05-09T06:16:50.409Z,22.50
2023-05-09T06:19:18.824Z,21.90
2023-05-09T06:21:47.218Z,21.87
2023-05-09T06:24:23.892Z,20.17
2023-05-09T06:27:05.390Z,19.73
2023-05-09T06:29:34.316Z,19.20
2023-05-09T06:32:02.992Z,19.87
2023-05-09T06:34:31.470Z,18.23
2023-05-09T06:36:59.959Z,20.20
2023-05-09T06:39:28.591Z,19.03
2023-05-09T06:41:57.042Z,20.03
2023-05-09T06:44:33.891Z,20.60
2023-05-09T06:47:02.788Z,19.13
2023-05-09T06:49:31.254Z,19.37
2023-05-09T06:51:59.887Z,19.50
2023-05-09T06:54:28.303Z,19.03
2023-05-09T06:56:56.829Z,19.60
2023-05-09T06:59:25.598Z,19.20
2023-05-09T07:01:55.939Z,23.17
2023-05-09T07:04:24.347Z,18.63
2023-05-09T07:06:52.754Z,19.73
2023-05-09T07:09:21.130Z,19.20
2023-05-09T07:11:49.435Z,20.03
2023-05-09T07:14:17.824Z,19.33
2023-05-09T07:16:46.837Z,18.00
2023-05-09T07:19:16.802Z,17.67
2023-05-09T07:21:45.334Z,21.70
2023-05-09T07:24:13.682Z,20.07
2023-05-09T07:26:42.094Z,18.30
2023-05-09T07:29:10.430Z,18.43
2023-05-09T07:31:38.802Z,19.20
2023-05-09T07:34:07.300Z,16.17
2023-05-09T07:39:08.120Z,18.40
2023-05-09T07:41:36.557Z,19.07
2023-05-09T07:44:04.919Z,16.70
2023-05-09T07:46:33.313Z,17.50
2023-05-09T07:49:01.677Z,17.67
2023-05-09T07:51:30.103Z,18.13
2023-05-09T07:54:01.214Z,20.00
2023-05-09T07:56:29.589Z,18.10
2023-05-09T07:58:57.981Z,19.13
2023-05-09T08:01:26.345Z,19.03
2023-05-09T08:03:54.815Z,17.43
2023-05-09T08:06:23.184Z,19.60
2023-05-09T08:08:51.747Z,18.03
2023-05-09T08:11:21.557Z,18.90
2023-05-09T08:13:49.996Z,17.10
2023-05-09T08:16:18.427Z,16.60
2023-05-09T08:18:46.927Z,17.70
2023-05-09T08:21:15.273Z,17.37
2023-05-09T08:23:43.607Z,16.83
2023-05-09T08:26:12.068Z,16.60
2023-05-09T08:28:41.862Z,16.47
2023-05-09T08:31:10.253Z,16.57
2023-05-09T08:33:41.723Z,17.93
2023-05-09T08:36:10.798Z,17.60
2023-05-09T08:38:40.602Z,18.17
2023-05-09T08:41:09.086Z,17.27
2023-05-09T08:43:39.006Z,17.13
2023-05-09T08:46:11.431Z,18.10
2023-05-09T08:48:41.090Z,19.73
2023-05-09T08:51:11.111Z,17.83
2023-05-09T08:53:39.824Z,19.13
2023-05-09T08:56:09.049Z,18.80
2023-05-09T08:58:37.822Z,20.93
2023-05-09T09:01:07.066Z,19.80
2023-05-09T09:03:39.281Z,18.80
2023-05-09T09:06:10.195Z,21.73
2023-05-09T09:08:38.964Z,19.03
2023-05-09T09:11:08.339Z,17.13
2023-05-09T09:13:41.735Z,18.70
2023-05-09T09:16:12.337Z,18.40
2023-05-09T09:18:42.111Z,18.27
2023-05-09T09:21:13.600Z,16.67
2023-05-09T09:23:45.481Z,19.40
2023-05-09T09:26:13.950Z,19.30
2023-05-09T09:28:43.090Z,16.97
2023-05-09T09:31:22.345Z,17.77
2023-05-09T09:33:52.591Z,17.70
2023-05-09T09:36:29.153Z,17.30
2023-05-09T09:39:02.427Z,17.87
2023-05-09T09:41:35.235Z,17.87
2023-05-09T09:44:09.315Z,17.77
2023-05-09T09:46:48.657Z,18.23
2023-05-09T09:49:20.435Z,17.23
2023-05-09T09:51:53.119Z,16.77
2023-05-09T09:54:22.381Z,15.83
2023-05-09T09:56:54.322Z,17.73
2023-05-09T09:59:25.046Z,16.13
2023-05-09T10:01:57.843Z,16.47
2023-05-09T10:04:31.498Z,16.80
2023-05-09T10:07:03.457Z,16.50
2023-05-09T10:09:32.103Z,17.63
2023-05-09T10:12:05.214Z,17.40
2023-05-09T10:14:36.202Z,17.77
2023-05-09T10:17:06.433Z,16.20
2023-05-09T10:19:39.358Z,16.53
2023-05-09T10:22:11.925Z,15.90
2023-05-09T10:24:48.269Z,16.97
2023-05-09T10:27:20.743Z,17.03
2023-05-09T10:29:58.629Z,17.13
2023-05-09T10:32:33.809Z,16.33
2023-05-09T10:35:09.995Z,16.93
2023-05-09T10:37:39.018Z,16.47
2023-05-09T10:40:09.182Z,16.77
2023-05-09T10:42:37.937Z,16.13
2023-05-09T10:45:09.654Z,16.70
2023-05-09T10:47:39.465Z,15.83
2023-05-09T10:50:12.463Z,16.23
2023-05-09T10:53:17.068Z,16.20
2023-05-09T10:55:59.147Z,16.93
2023-05-09T10:58:29.887Z,15.10
2023-05-09T11:01:00.606Z,16.03
2023-05-09T11:03:30.797Z,17.37
2023-05-09T11:06:00.876Z,18.27
2023-05-09T11:08:30.612Z,15.93
2023-05-09T11:11:06.580Z,17.83
2023-05-09T11:13:39.071Z,17.60
2023-05-09T11:16:11.932Z,16.77
2023-05-09T11:18:54.561Z,19.47
2023-05-09T11:21:24.442Z,18.17
2023-05-09T11:23:55.286Z,21.33
2023-05-09T11:26:30.053Z,19.60
2023-05-09T11:29:02.816Z,19.30
2023-05-09T11:31:31.449Z,19.87
2023-05-09T11:34:04.989Z,19.60
2023-05-09T11:36:35.657Z,19.30
2023-05-09T11:39:07.628Z,17.77
2023-05-09T11:41:42.826Z,18.73
2023-05-09T11:44:16.742Z,19.20
2023-05-09T11:46:45.222Z,19.90
2023-05-09T11:49:13.838Z,18.93
2023-05-09T11:51:43.742Z,19.60
2023-05-09T11:54:14.929Z,19.80
2023-05-09T11:56:43.662Z,18.10
2023-05-09T11:59:14.760Z,18.33
2023-05-09T12:01:43.616Z,20.27
2023-05-09T12:04:12.080Z,17.50
2023-05-09T12:06:40.651Z,18.33
2023-05-09T12:09:11.378Z,17.20
2023-05-09T12:11:39.862Z,17.37
2023-05-09T12:14:08.254Z,18.53
2023-05-09T12:16:36.668Z,18.80
2023-05-09T12:19:05.766Z,17.70
2023-05-09T12:21:34.219Z,18.37
2023-05-09T12:24:02.602Z,18.13
2023-05-09T12:26:32.344Z,16.03
2023-05-09T12:29:01.076Z,15.13
2023-05-09T12:31:29.697Z,15.83
2023-05-09T12:33:58.245Z,17.27
2023-05-09T12:36:26.643Z,16.07
2023-05-09T12:38:56.046Z,14.60
2023-05-09T12:41:36.896Z,18.67
2023-05-09T12:44:09.302Z,16.03
2023-05-09T12:46:38.047Z,15.87
2023-05-09T12:49:06.552Z,16.30
2023-05-09T12:51:34.942Z,12.87
2023-05-09T12:54:06.008Z,14.07
2023-05-09T12:56:36.603Z,14.30
2023-05-09T12:59:05.085Z,18.00
2023-05-09T13:01:37.711Z,16.97
2023-05-09T13:04:08.797Z,17.57
2023-05-09T13:06:50.264Z,16.43
2023-05-09T13:09:19.875Z,17.73
2023-05-09T13:11:48.779Z,17.30
2023-05-09T13:14:17.191Z,16.07
2023-05-09T13:16:47.073Z,16.23
2023-05-09T13:19:15.516Z,15.80
2023-05-09T13:21:43.924Z,15.63
2023-05-09T13:24:12.298Z,16.13
2023-05-09T13:26:40.677Z,16.50
2023-05-09T13:29:09.038Z,17.57
2023-05-09T13:31:37.523Z,16.60
2023-05-09T13:34:07.265Z,19.50
2023-05-09T13:36:35.722Z,16.70
2023-05-09T13:39:04.689Z,15.80
2023-05-09T13:41:34.869Z,16.23
2023-05-09T13:44:04.291Z,16.83
2023-05-09T13:46:32.830Z,17.70
2023-05-09T13:49:01.204Z,15.27
2023-05-09T13:51:31.109Z,14.57
2023-05-09T13:53:59.472Z,15.73
2023-05-09T13:56:28.060Z,14.70
2023-05-09T13:58:56.745Z,15.80
2023-05-09T14:01:25.521Z,17.00
2023-05-09T14:03:54.134Z,15.57
2023-05-09T14:06:22.646Z,15.47
2023-05-09T14:08:52.452Z,16.30
2023-05-09T14:11:21.692Z,16.93
2023-05-09T14:13:50.339Z,17.27
2023-05-09T14:16:18.839Z,17.40
2023-05-09T14:18:47.436Z,18.00
2023-05-09T14:21:16.403Z,18.03
2023-05-09T14:23:45.211Z,30.83
2023-05-09T14:26:15.108Z,19.97
2023-05-09T14:28:44.304Z,16.63
2023-05-09T14:31:13.456Z,15.00
2023-05-09T14:33:41.865Z,14.60
2023-05-09T14:36:11.009Z,15.90
2023-05-09T14:38:39.752Z,14.80
2023-05-09T14:41:09.001Z,18.00
2023-05-09T14:43:38.666Z,15.60
2023-05-09T14:46:07.067Z,16.50
2023-05-09T14:48:35.546Z,16.90
2023-05-09T14:51:04.306Z,17.00
2023-05-09T14:53:35.478Z,18.43
2023-05-09T14:56:03.877Z,17.63
2023-05-09T14:58:34.217Z,16.77
2023-05-09T15:01:04.248Z,17.30
2023-05-09T15:03:32.767Z,15.60
2023-05-09T15:06:01.082Z,15.70
2023-05-09T15:08:29.416Z,16.27
2023-05-09T15:10:58.009Z,16.80
2023-05-09T15:13:26.449Z,17.73
2023-05-09T15:15:54.822Z,16.47
2023-05-09T15:18:28.541Z,15.80
2023-05-09T15:20:57.438Z,15.80
2023-05-09T15:23:25.856Z,15.93
2023-05-09T15:25:54.170Z,15.87
2023-05-09T15:28:22.519Z,17.70
2023-05-09T15:30:50.919Z,16.07
2023-05-09T15:33:19.346Z,15.57
2023-05-09T15:35:50.158Z,15.33
2023-05-09T15:38:18.716Z,16.80
2023-05-09T15:40:47.766Z,17.97
2023-05-09T15:43:16.420Z,18.63
2023-05-09T15:45:45.793Z,18.50
2023-05-09T15:48:14.291Z,21.67
2023-05-09T15:50:43.715Z,21.00
2023-05-09T15:53:15.573Z,21.20
2023-05-09T15:55:44.652Z,19.80
2023-05-09T15:58:14.084Z,22.80
2023-05-09T16:00:42.406Z,23.90
2023-05-09T16:03:10.818Z,22.70
2023-05-09T16:05:40.997Z,22.83
2023-05-09T16:08:09.531Z,23.80
2023-05-09T16:10:39.315Z,25.90
2023-05-09T16:13:08.157Z,25.27
2023-05-09T16:15:37.177Z,26.33
2023-05-09T16:18:05.808Z,24.10
2023-05-09T16:20:34.197Z,24.27
2023-05-09T16:23:02.947Z,22.90
2023-05-09T16:25:33.410Z,24.30
2023-05-09T16:28:04.940Z,23.73
2023-05-09T16:30:33.340Z,23.13
2023-05-09T16:33:01.904Z,22.20
2023-05-09T16:35:30.505Z,20.53
2023-05-09T16:37:59.073Z,22.63
2023-05-09T16:40:27.473Z,20.80
2023-05-09T16:42:55.897Z,20.73
2023-05-09T16:45:25.823Z,23.30
2023-05-09T16:47:55.721Z,24.50
2023-05-09T16:50:24.529Z,23.07
2023-05-09T16:52:53.603Z,22.30
2023-05-09T16:55:22.068Z,21.97
2023-05-09T16:57:50.468Z,21.80
2023-05-09T17:00:20.704Z,21.33
2023-05-09T17:02:50.452Z,20.43
2023-05-09T17:05:19.382Z,20.80
2023-05-09T17:07:47.780Z,20.63
2023-05-09T17:10:16.392Z,22.83
2023-05-09T17:12:44.954Z,19.67
2023-05-09T17:15:13.871Z,22.17
2023-05-09T17:17:42.418Z,20.73
2023-05-09T17:20:13.442Z,20.97
2023-05-09T17:22:42.141Z,20.37
2023-05-09T17:25:11.186Z,18.13
2023-05-09T17:27:42.791Z,17.30
2023-05-09T17:30:12.026Z,19.20
2023-05-09T17:32:41.962Z,18.77
2023-05-09T17:35:12.286Z,19.47
2023-05-09T17:37:40.966Z,17.50
2023-05-09T17:40:12.705Z,17.20
2023-05-09T17:42:43.186Z,17.70
2023-05-09T17:45:12.745Z,18.00
2023-05-09T17:47:43.764Z,23.10
2023-05-09T17:50:16.908Z,20.87
2023-05-09T17:52:45.863Z,22.87
2023-05-09T17:55:14.408Z,23.40
2023-05-09T17:57:45.875Z,23.93
2023-05-09T18:00:16.298Z,21.97
2023-05-09T18:02:45.346Z,21.67
2023-05-09T18:05:15.131Z,21.40
2023-05-09T18:07:43.524Z,19.60
2023-05-09T18:10:12.911Z,15.47
2023-05-09T18:12:41.695Z,18.67
2023-05-09T18:15:11.438Z,15.47
2023-05-09T18:17:39.879Z,19.50
2023-05-09T18:20:10.738Z,19.50
2023-05-09T18:22:40.497Z,16.60
2023-05-09T18:25:09.708Z,17.53
2023-05-09T18:27:38.013Z,15.90
2023-05-09T18:30:08.182Z,12.37
2023-05-09T18:32:36.573Z,12.93
2023-05-09T18:35:05.504Z,10.83
2023-05-09T18:37:33.933Z,8.83
2023-05-09T18:40:05.310Z,9.10
2023-05-09T18:42:33.681Z,10.30
2023-05-09T18:45:04.369Z,9.77
2023-05-09T18:47:32.901Z,8.90
2023-05-09T18:50:02.822Z,10.50
2023-05-09T18:52:32.444Z,8.87
2023-05-09T18:55:00.880Z,10.83
2023-05-09T18:57:30.622Z,11.03
2023-05-09T18:59:58.993Z,10.47
2023-05-09T19:02:27.440Z,9.47
2023-05-09T19:04:55.804Z,8.27
2023-05-09T19:07:24.192Z,8.77
2023-05-09T19:09:52.623Z,8.53
2023-05-09T19:12:20.946Z,9.73
2023-05-09T19:14:50.758Z,9.80
2023-05-09T19:17:19.096Z,8.90
2023-05-09T19:19:47.472Z,9.53
2023-05-09T19:22:15.940Z,9.90
2023-05-09T19:24:44.313Z,8.20
2023-05-09T19:27:12.713Z,7.10
2023-05-09T19:29:41.116Z,9.20
2023-05-09T19:32:10.940Z,8.80
2023-05-09T19:34:39.328Z,9.27
2023-05-09T19:37:07.662Z,7.70
2023-05-09T19:39:36.044Z,8.57
2023-05-09T19:42:04.537Z,7.53
2023-05-09T19:44:32.915Z,7.90
2023-05-09T19:47:05.092Z,9.67
2023-05-09T19:49:34.798Z,9.03
2023-05-09T19:52:03.178Z,7.90
2023-05-09T19:54:32.433Z,7.70
2023-05-09T19:57:00.722Z,7.30
2023-05-09T19:59:30.436Z,8.53
2023-05-09T20:01:58.978Z,8.70
2023-05-09T20:04:27.382Z,7.33
2023-05-09T20:06:57.069Z,7.77
2023-05-09T20:09:25.380Z,7.37
2023-05-09T20:11:53.776Z,7.07
2023-05-09T20:14:22.332Z,8.57
2023-05-09T20:16:50.638Z,6.80
2023-05-09T20:19:19.992Z,6.30
2023-05-09T20:21:48.299Z,6.97
2023-05-09T20:24:18.075Z,8.13
2023-05-09T20:26:46.441Z,7.53
2023-05-09T20:29:14.860Z,8.40
2023-05-09T20:31:43.310Z,8.17
2023-05-09T20:34:16.006Z,8.17
2023-05-09T20:36:44.536Z,9.93
2023-05-09T20:39:13.304Z,8.67
2023-05-09T20:41:43.435Z,9.50
2023-05-09T20:44:11.766Z,8.57
2023-05-09T20:46:40.575Z,8.90
2023-05-09T20:49:08.943Z,9.30
2023-05-09T20:51:38.568Z,9.20
2023-05-09T20:54:07.332Z,10.70
2023-05-09T20:56:35.867Z,8.60
2023-05-09T20:59:06.771Z,8.07
2023-05-09T21:01:36.865Z,8.90
2023-05-09T21:04:05.979Z,8.47
2023-05-09T21:06:34.437Z,6.57
2023-05-09T21:09:03.015Z,6.13
2023-05-09T21:11:31.644Z,7.13
2023-05-09T21:13:59.970Z,6.13
2023-05-09T21:16:29.837Z,5.67
2023-05-09T21:18:59.444Z,6.20
2023-05-09T21:21:27.797Z,6.20
2023-05-09T21:23:56.166Z,7.83
2023-05-09T21:26:24.504Z,7.00
2023-05-09T21:28:52.861Z,7.40
2023-05-09T21:31:21.267Z,8.23
2023-05-09T21:33:50.958Z,7.33
2023-05-09T21:36:19.417Z,6.90
2023-05-09T21:38:47.714Z,10.33
2023-05-09T21:41:16.057Z,7.80
2023-05-09T21:43:44.377Z,7.40
2023-05-09T21:46:12.779Z,6.50
2023-05-09T21:48:41.220Z,6.13
2023-05-09T21:51:12.367Z,7.00
2023-05-09T21:53:40.699Z,6.57
2023-05-09T21:56:09.308Z,7.50
2023-05-09T21:58:37.656Z,9.97
2023-05-09T22:01:06.228Z,6.60
2023-05-09T22:03:34.617Z,5.87
2023-05-09T22:06:03.026Z,7.13
2023-05-09T22:08:32.783Z,6.03
2023-05-09T22:11:01.116Z,6.00
2023-05-09T22:13:29.490Z,6.17
2023-05-09T22:15:57.937Z,5.97
2023-05-09T22:18:26.456Z,6.53
2023-05-09T22:20:54.900Z,6.63
2023-05-09T22:23:23.286Z,6.40
2023-05-09T22:25:53.170Z,6.40
2023-05-09T22:28:21.529Z,5.63
2023-05-09T22:30:49.976Z,6.47
2023-05-09T22:33:18.322Z,6.17
2023-05-09T22:35:47.905Z,5.63
2023-05-09T22:38:16.241Z,5.87
2023-05-09T22:40:44.955Z,5.93
2023-05-09T22:43:14.655Z,7.37
2023-05-09T22:45:43.815Z,6.17
2023-05-09T22:48:12.233Z,5.47
2023-05-09T22:50:40.562Z,7.40
2023-05-09T22:53:09.275Z,6.43
2023-05-09T22:55:37.658Z,6.73
2023-05-09T22:58:06.080Z,6.50
2023-05-09T23:00:36.085Z,7.20
2023-05-09T23:03:05.086Z,6.83
2023-05-09T23:05:33.569Z,6.30
2023-05-09T23:08:02.035Z,6.83
2023-05-09T23:10:30.479Z,8.17
2023-05-09T23:12:58.810Z,6.70
2023-05-09T23:15:27.187Z,6.43
2023-05-09T23:17:56.897Z,7.70
2023-05-09T23:20:25.200Z,6.90
2023-05-09T23:22:53.639Z,6.57
2023-05-09T23:25:22.324Z,6.87
2023-05-09T23:27:50.681Z,5.60
2023-05-09T23:30:19.125Z,6.93
2023-05-09T23:32:47.546Z,6.83
2023-05-09T23:35:17.674Z,6.80
2023-05-09T23:37:46.103Z,8.07
2023-05-09T23:40:15.510Z,6.80
2023-05-09T23:42:50.124Z,6.40
2023-05-09T23:45:18.653Z,6.20
2023-05-09T23:47:47.043Z,3.37
2023-05-09T23:50:16.957Z,3.13
2023-05-09T23:52:49.563Z,2.57
2023-05-09T23:55:18.224Z,2.73
2023-05-09T23:57:46.605Z,3.03
